Caledonia, Missouri
Current Conditions -  °F | °C
As of 10:35 AM on Friday 21 Nov 2014 (Local Time) from KFAM Reporting Station
Overcast Overcast  
Wind Chill: 29°   Ceiling: 3400
Heat Index: 36°   Visibility: 10mi
Dew Point: 21°   Wind: 8mph
Humidity: 56%   Direction: 80°E
Pressure: 30.4"   Gusts: NA
Location:  37.76°N, 90.77°W
Report Text: KFAM 211635Z AUTO 08007KT 10SM OVC034 02/M06 A3040 RMK AO1
Loading
Personal Weather Stations






























Interactive Weather Map New forecast layout! Learn more

10-Day Weather Forecast

Advertisements
Track Severe Weather on mobile